LFOELFRD

Guest
Details From LFOE - FAUVILLE
To LFRD - Dinard Pleurtuit-St Malo
Flight Number -
Tags generated
Created
Modified
Stats Distance 133 nm / 247 km
Max Altitude 14,800 ft / 4,511 m
Waypoints 3
Social Downloads 0
Likes 0
Share VATSIM

Download

Looking for another format? Having issues loading an existing format? Contact us
Advertisement - Login to hide

Notes

Basic altitude profile: - Ascent Rate: 400ft/min - Ascent Speed: 75kts - Cruise Altitude: 5000ft - Cruise Speed: 95kts - Descent Rate: 400ft/min - Descent Speed: 75kts Options: - Use NATs: yes - Use PACOTS: yes - Use low airways: yes - Use high airways: yes

Route

LFOE GALBO LFRD

ID Type Via Altitude (ft/m) Position (lat/lon) Dist (leg/tot) Name
O LFOE APT - 0 / 0 49.02867 / 1.21987 - / 0 nm FAUVILLE
GALBO FIX - 14,800 / 4,511 48.83806 / -0.25000 59 / 59 nm
O LFRD APT - 0 / 0 48.58798 / -2.07992 74 / 133 nm Dinard Pleurtuit-St Malo

Altitude Profile

Advertisement - Login to hide

LFOE

Details ICAO LFOE (EVX)
Name FAUVILLE
Region France
Timezone Europe/Paris (UTC+2.0)
Stats Elevation 463 ft / 141 m (AMSL)
Location 49.028700° 1.219860°
Runways 1
Magnetic Variation 0.420° E

METAR

LFOE 220000Z AUTO 31003KT CAVOK 08/07 Q1020 NOSIG

Decode

TAF

Not found

Departure Runways

ID Width Length Bearing (true/mag) Surface Threshold Overrun Markings Lighting
04 148 ft / 45 m 9,836 ft / 2,998 m 39.78° / 39.36° ASPHALT 0 ft / 0 m 0 ft / 0 m PREC-APP CENTERLINE EDGE THRESHOLD REIL-OMNI
22 148 ft / 45 m 9,836 ft / 2,998 m 219.80° / 219.38° ASPHALT 0 ft / 0 m 0 ft / 0 m PREC-APP CENTERLINE EDGE THRESHOLD CALVERT REIL-OMNI

LFRD

Details ICAO LFRD (DNR)
Name Dinard Pleurtuit-St Malo
Region France
Timezone Europe/Paris (UTC+2.0)
Stats Elevation 216 ft / 66 m (AMSL)
Location 48.588000° -2.079920°
Runways 2
Magnetic Variation 0.598° W

METAR

LFRD 220000Z AUTO 21003KT 1000 0450 R35L/1500D BCFG FEW001 09/08 Q1021 TEMPO 0300 FG VV///

Decode

TAF

TAF AMD LFRD 212352Z 2200/2224 VRB04KT 0400 FG VV/// BECMG 2207/2209 CAVOK BECMG 2209/2212 SCT040 BECMG 2212/2215 04010KT BECMG 2218/2221 VRB04KT

Decode

Destination Runways

ID Width Length Bearing (true/mag) Surface Threshold Overrun Markings Lighting
12 148 ft / 45 m 4,909 ft / 1,496 m 115.13° / 115.73° ASPHALT 0 ft / 0 m 0 ft / 0 m APP
17 148 ft / 45 m 7,199 ft / 2,194 m 170.09° / 170.69° ASPHALT 0 ft / 0 m 0 ft / 0 m PREC-APP EDGE THRESHOLD REIL-OMNI
30 148 ft / 45 m 4,909 ft / 1,496 m 295.14° / 295.74° ASPHALT 669 ft / 204 m 0 ft / 0 m APP
35 148 ft / 45 m 7,199 ft / 2,194 m 350.10° / 350.70° ASPHALT 0 ft / 0 m 0 ft / 0 m PREC-APP EDGE THRESHOLD ALSF-I

Approach Navaids

Runway Type Ident Frequency Range Bearing (true/mag) Slope Elevation
35 DME DR 110.75 MHz 27 nm / 50 km - - 216 ft / 66 m (AMSL)
35 GS DR 110.75 MHz 27 nm / 50 km 350.16° / 350.76 ° 3.00° 216 ft / 66 m (AMSL)
35 LOC-ILS DR 110.75 MHz 27 nm / 50 km 350.08° / 350.68 ° - 216 ft / 66 m (AMSL)

Popular Alternatives